createdAt,value
2018-03-27T00:01:19.079Z,97195.86
2018-03-27T00:03:49.376Z,97197.97
2018-03-27T00:06:25.331Z,97195.34
2018-03-27T00:08:55.837Z,97198.33
2018-03-27T00:11:27.281Z,97196.75
2018-03-27T00:14:00.739Z,97195.66
2018-03-27T00:16:32.577Z,97198.48
2018-03-27T00:19:04.624Z,97190.72
2018-03-27T00:21:36.403Z,97195.97
2018-03-27T00:24:07.801Z,97193.83
2018-03-27T00:26:56.992Z,97194.73
2018-03-27T00:29:45.441Z,97196.87
2018-03-27T00:32:52.914Z,97196.39
2018-03-27T00:35:48.412Z,97194.70
2018-03-27T00:38:42.888Z,97201.55
2018-03-27T00:45:09.746Z,97194.52
2018-03-27T00:47:40.373Z,97194.31
2018-03-27T00:50:12.017Z,97198.92
2018-03-27T00:52:44.162Z,97192.64
2018-03-27T00:55:14.829Z,97186.52
2018-03-27T00:57:47.873Z,97188.99
2018-03-27T01:00:19.603Z,97198.22
2018-03-27T01:02:52.255Z,97199.84
2018-03-27T01:05:25.295Z,97204.37
2018-03-27T01:07:57.049Z,97198.78
2018-03-27T01:10:28.332Z,97202.53
2018-03-27T01:12:59.621Z,97204.41
2018-03-27T01:15:30.754Z,97201.65
2018-03-27T01:18:01.380Z,97197.95
2018-03-27T01:20:33.544Z,97200.95
2018-03-27T01:23:06.400Z,97204.03
2018-03-27T01:25:37.113Z,97199.27
2018-03-27T01:28:08.443Z,97191.62
2018-03-27T01:30:39.404Z,97190.72
2018-03-27T01:33:11.692Z,97193.25
2018-03-27T01:35:53.535Z,97193.46
2018-03-27T01:38:27.179Z,97189.24
2018-03-27T01:41:00.720Z,97187.63
2018-03-27T01:43:31.854Z,97188.97
2018-03-27T01:46:02.610Z,97188.50
2018-03-27T01:48:34.964Z,97190.61
2018-03-27T01:54:21.346Z,97187.70
2018-03-27T01:56:52.500Z,97188.95
2018-03-27T01:59:26.469Z,97184.18
2018-03-27T02:05:04.845Z,97186.27
2018-03-27T02:07:38.347Z,97190.03
2018-03-27T02:10:12.038Z,97185.05
2018-03-27T02:15:41.512Z,97187.94
2018-03-27T02:18:21.331Z,97182.99
2018-03-27T02:20:59.035Z,97180.96
2018-03-27T02:23:29.504Z,97185.41
2018-03-27T02:25:58.875Z,97184.92
2018-03-27T02:28:28.469Z,97190.17
2018-03-27T02:31:02.504Z,97190.31
2018-03-27T02:33:35.932Z,97188.65
2018-03-27T02:36:10.151Z,97187.75
2018-03-27T02:38:44.819Z,97187.91
2018-03-27T02:41:17.823Z,97186.99
2018-03-27T02:43:55.963Z,97185.03
2018-03-27T02:49:03.729Z,97190.39
2018-03-27T02:51:34.744Z,97190.16
2018-03-27T02:54:11.492Z,97192.33
2018-03-27T02:56:47.105Z,97192.12
2018-03-27T02:59:17.624Z,97187.78
2018-03-27T03:01:49.241Z,97185.06
2018-03-27T03:04:19.799Z,97190.47
2018-03-27T03:06:49.585Z,97188.55
2018-03-27T03:09:18.890Z,97185.49
2018-03-27T03:11:48.250Z,97193.70
2018-03-27T03:14:17.581Z,97186.38
2018-03-27T03:16:46.924Z,97191.45
2018-03-27T03:19:16.210Z,97192.95
2018-03-27T03:21:49.470Z,97190.25
2018-03-27T03:24:19.038Z,97186.70
2018-03-27T03:26:48.583Z,97192.33
2018-03-27T03:29:18.655Z,97179.75
2018-03-27T03:31:47.978Z,97180.62
2018-03-27T03:34:17.481Z,97184.39
2018-03-27T03:36:46.837Z,97178.23
2018-03-27T03:39:16.195Z,97180.69
2018-03-27T03:41:45.696Z,97190.68
2018-03-27T03:44:16.147Z,97192.02
2018-03-27T03:47:02.856Z,97189.19
2018-03-27T03:49:38.054Z,97199.18
2018-03-27T03:52:11.854Z,97191.80
2018-03-27T03:54:43.958Z,97192.98
2018-03-27T03:57:14.854Z,97192.62
2018-03-27T03:59:48.805Z,97189.06
2018-03-27T04:02:20.629Z,97187.91
2018-03-27T04:04:53.191Z,97197.56
2018-03-27T04:07:26.575Z,97189.28
2018-03-27T04:09:59.340Z,97194.13
2018-03-27T04:12:34.572Z,97195.41
2018-03-27T04:15:08.180Z,97196.52
2018-03-27T04:17:38.516Z,97196.89
2018-03-27T04:20:08.725Z,97193.84
2018-03-27T04:22:39.762Z,97192.38
2018-03-27T04:25:09.078Z,97189.73
2018-03-27T04:27:38.375Z,97195.88
2018-03-27T04:30:07.784Z,97195.80
2018-03-27T04:32:37.147Z,97203.48
2018-03-27T04:35:06.492Z,97192.11
2018-03-27T04:37:35.840Z,97201.09
2018-03-27T04:40:05.188Z,97212.99
2018-03-27T04:42:35.234Z,97214.61
2018-03-27T04:45:05.963Z,97218.36
2018-03-27T04:47:35.320Z,97209.08
2018-03-27T04:50:23.171Z,97210.94
2018-03-27T04:52:58.632Z,97211.55
2018-03-27T04:55:28.248Z,97224.34
2018-03-27T04:57:57.589Z,97220.27
2018-03-27T05:00:26.909Z,97220.57
2018-03-27T05:02:57.027Z,97206.39
2018-03-27T05:05:27.135Z,97204.31
2018-03-27T05:07:56.443Z,97204.28
2018-03-27T05:10:31.551Z,97219.97
2018-03-27T05:13:03.761Z,97220.26
2018-03-27T05:15:37.204Z,97217.16
2018-03-27T05:18:09.500Z,97214.11
2018-03-27T05:20:42.592Z,97219.07
2018-03-27T05:23:13.054Z,97224.27
2018-03-27T05:25:43.870Z,97219.05
2018-03-27T05:28:13.479Z,97228.11
2018-03-27T05:30:42.800Z,97232.01
2018-03-27T05:33:14.725Z,97235.23
2018-03-27T05:35:45.997Z,97227.07
2018-03-27T05:38:16.488Z,97228.30
2018-03-27T05:40:47.381Z,97233.23
2018-03-27T05:43:20.662Z,97227.67
2018-03-27T05:45:50.230Z,97220.88
2018-03-27T05:48:22.359Z,97222.37
2018-03-27T05:50:53.337Z,97225.75
2018-03-27T05:53:28.681Z,97227.57
2018-03-27T05:56:07.846Z,97222.16
2018-03-27T05:58:41.392Z,97224.55
2018-03-27T06:01:11.752Z,97227.61
2018-03-27T06:03:48.130Z,97223.08
2018-03-27T06:06:20.248Z,97229.70
2018-03-27T06:08:53.475Z,97233.52
2018-03-27T06:11:28.026Z,97230.64
2018-03-27T06:14:01.324Z,97231.85
2018-03-27T06:16:31.301Z,97228.80
2018-03-27T06:19:02.746Z,97229.83
2018-03-27T06:21:36.563Z,97230.98
2018-03-27T06:24:06.059Z,97227.50
2018-03-27T06:26:35.499Z,97219.66
2018-03-27T06:29:04.786Z,97230.02
2018-03-27T06:31:34.479Z,97235.22
2018-03-27T06:34:06.552Z,97239.22
2018-03-27T06:36:37.275Z,97243.77
2018-03-27T06:39:07.827Z,97250.56
2018-03-27T06:41:37.836Z,97243.86
2018-03-27T06:44:07.162Z,97243.66
2018-03-27T06:46:37.657Z,97242.70
2018-03-27T06:49:07.002Z,97240.41
2018-03-27T06:51:36.335Z,97240.81
2018-03-27T06:54:05.766Z,97243.73
2018-03-27T06:56:35.014Z,97237.36
2018-03-27T06:59:04.359Z,97239.95
2018-03-27T07:01:33.789Z,97240.91
2018-03-27T07:04:03.131Z,97252.18
2018-03-27T07:06:32.431Z,97253.48
2018-03-27T07:09:01.828Z,97256.13
2018-03-27T07:11:31.107Z,97255.38
2018-03-27T07:14:00.469Z,97260.24
2018-03-27T07:16:29.984Z,97263.34
2018-03-27T07:18:59.277Z,97261.75
2018-03-27T07:21:28.595Z,97269.73
2018-03-27T07:23:58.293Z,97273.93
2018-03-27T07:26:27.807Z,97278.67
2018-03-27T07:28:57.347Z,97275.86
2018-03-27T07:31:28.614Z,97276.65
2018-03-27T07:33:58.066Z,97276.26
2018-03-27T07:36:27.618Z,97279.77
2018-03-27T07:38:56.999Z,97279.17
2018-03-27T07:41:26.326Z,97283.42
2018-03-27T07:43:56.547Z,97279.86
2018-03-27T07:46:25.896Z,97283.47
2018-03-27T07:48:55.507Z,97283.52
2018-03-27T07:51:26.702Z,97286.59
2018-03-27T07:53:56.014Z,97278.39
2018-03-27T07:56:26.458Z,97275.45
2018-03-27T07:58:56.223Z,97275.02
2018-03-27T08:01:25.610Z,97282.29
2018-03-27T08:03:55.514Z,97284.49
2018-03-27T08:06:24.842Z,97283.64
2018-03-27T08:08:54.325Z,97279.59
2018-03-27T08:11:23.969Z,97284.89
2018-03-27T08:13:53.285Z,97284.54
2018-03-27T08:16:22.639Z,97282.44
2018-03-27T08:18:53.190Z,97273.89
2018-03-27T08:21:22.545Z,97270.72
2018-03-27T08:23:51.849Z,97273.64
2018-03-27T08:26:21.214Z,97277.02
2018-03-27T08:28:51.788Z,97279.27
2018-03-27T08:31:22.242Z,97282.44
2018-03-27T08:33:52.887Z,97280.69
2018-03-27T08:36:23.065Z,97281.37
2018-03-27T08:38:53.186Z,97278.61
2018-03-27T08:41:24.960Z,97277.96
2018-03-27T08:43:54.300Z,97280.85
2018-03-27T08:46:23.699Z,97273.88
2018-03-27T08:48:53.798Z,97281.33
2018-03-27T08:51:24.501Z,97282.48
2018-03-27T08:53:54.196Z,97282.06
2018-03-27T08:56:24.760Z,97282.48
2018-03-27T08:58:54.149Z,97282.94
2018-03-27T09:01:23.981Z,97278.05
2018-03-27T09:03:54.264Z,97275.94
2018-03-27T09:06:24.164Z,97276.80
2018-03-27T09:08:55.276Z,97272.82
2018-03-27T09:11:24.770Z,97275.45
2018-03-27T09:13:55.966Z,97267.76
2018-03-27T09:16:25.396Z,97271.69
2018-03-27T09:18:54.906Z,97263.56
2018-03-27T09:21:25.284Z,97263.19
2018-03-27T09:23:54.698Z,97265.42
2018-03-27T09:26:24.451Z,97265.50
2018-03-27T09:28:55.285Z,97266.63
2018-03-27T09:31:24.628Z,97263.45
2018-03-27T09:33:56.194Z,97261.00
2018-03-27T09:36:26.220Z,97267.08
2018-03-27T09:38:57.819Z,97264.77
2018-03-27T09:41:32.811Z,97274.84
2018-03-27T09:44:06.313Z,97271.30
2018-03-27T09:46:37.227Z,97265.53
2018-03-27T09:49:07.881Z,97263.67
2018-03-27T09:51:38.132Z,97261.52
2018-03-27T09:54:09.666Z,97264.27
2018-03-27T09:56:40.829Z,97261.55
2018-03-27T09:59:11.538Z,97259.52
2018-03-27T10:01:46.380Z,97264.39
2018-03-27T10:04:22.330Z,97265.20
2018-03-27T10:06:54.973Z,97267.12
2018-03-27T10:09:24.432Z,97259.94
2018-03-27T10:11:54.518Z,97257.07
2018-03-27T10:14:23.856Z,97242.41
2018-03-27T10:16:53.499Z,97234.82
2018-03-27T10:19:23.070Z,97241.58
2018-03-27T10:21:53.371Z,97242.95
2018-03-27T10:24:22.732Z,97231.78
2018-03-27T10:26:52.046Z,97230.12
2018-03-27T10:29:22.260Z,97229.91
2018-03-27T10:31:53.535Z,97224.75
2018-03-27T10:34:23.558Z,97225.88
2018-03-27T10:36:55.335Z,97219.70
2018-03-27T10:39:26.575Z,97219.39
2018-03-27T10:41:57.557Z,97218.14
2018-03-27T10:44:29.940Z,97214.84
2018-03-27T10:47:03.228Z,97223.76
2018-03-27T10:49:32.685Z,97212.94
2018-03-27T10:52:03.040Z,97211.03
2018-03-27T10:54:33.254Z,97199.84
2018-03-27T10:57:03.934Z,97196.98
2018-03-27T10:59:33.868Z,97189.78
2018-03-27T11:02:04.696Z,97183.78
2018-03-27T11:04:34.081Z,97183.72
2018-03-27T11:07:04.020Z,97173.64
2018-03-27T11:09:34.820Z,97168.38
2018-03-27T11:12:04.216Z,97170.13
2018-03-27T11:14:34.284Z,97159.80
2018-03-27T11:17:04.985Z,97148.38
2018-03-27T11:19:34.413Z,97157.97
2018-03-27T11:22:05.007Z,97154.70
2018-03-27T11:24:34.373Z,97154.91
2018-03-27T11:27:06.169Z,97152.50
2018-03-27T11:29:35.518Z,97144.92
2018-03-27T11:32:07.825Z,97139.97
2018-03-27T11:34:39.239Z,97142.69
2018-03-27T11:37:12.764Z,97135.37
2018-03-27T11:39:46.843Z,97133.74
2018-03-27T11:42:19.266Z,97125.56
2018-03-27T11:44:49.429Z,97126.38
2018-03-27T11:47:21.176Z,97128.19
2018-03-27T11:49:50.511Z,97130.34
2018-03-27T11:52:19.821Z,97130.56
2018-03-27T11:54:49.208Z,97130.08
2018-03-27T11:57:18.714Z,97124.80
2018-03-27T11:59:48.041Z,97122.32
2018-03-27T12:02:17.419Z,97119.34
2018-03-27T12:04:46.711Z,97115.45
2018-03-27T12:07:16.013Z,97108.95
2018-03-27T12:09:45.318Z,97116.70
2018-03-27T12:12:14.703Z,97113.99
2018-03-27T12:14:44.034Z,97107.55
2018-03-27T12:17:14.243Z,97105.34
2018-03-27T12:19:43.553Z,97094.38
2018-03-27T12:22:12.917Z,97105.44
2018-03-27T12:24:43.014Z,97100.88
2018-03-27T12:27:12.316Z,97099.02
2018-03-27T12:29:41.679Z,97093.36
2018-03-27T12:32:42.554Z,97087.03
2018-03-27T12:35:15.479Z,97080.99
2018-03-27T12:37:46.725Z,97077.25
2018-03-27T12:40:18.356Z,97077.45
2018-03-27T12:42:50.493Z,97072.95
2018-03-27T12:45:21.436Z,97070.68
2018-03-27T12:47:54.027Z,97072.41
2018-03-27T12:50:24.198Z,97071.41
2018-03-27T12:52:56.334Z,97064.47
2018-03-27T12:55:25.976Z,97056.94
2018-03-27T12:57:55.639Z,97058.00
2018-03-27T13:00:25.009Z,97054.19
2018-03-27T13:02:55.590Z,97052.73
2018-03-27T13:05:24.930Z,97049.82
2018-03-27T13:07:54.227Z,97054.00
2018-03-27T13:10:23.810Z,97046.52
2018-03-27T13:12:53.133Z,97049.42
2018-03-27T13:15:22.463Z,97043.79
2018-03-27T13:17:52.031Z,97040.80
2018-03-27T13:20:21.340Z,97040.10
2018-03-27T13:22:50.803Z,97035.73
2018-03-27T13:25:21.065Z,97036.01
2018-03-27T13:27:50.350Z,97030.85
2018-03-27T13:30:19.699Z,97026.73
2018-03-27T13:32:50.984Z,97023.05
2018-03-27T13:35:23.592Z,97021.25
2018-03-27T13:37:55.339Z,97014.63
2018-03-27T13:40:27.042Z,97007.40
2018-03-27T13:42:58.826Z,97010.95
2018-03-27T13:45:33.788Z,97003.25
2018-03-27T13:48:04.900Z,97003.69
2018-03-27T13:50:37.967Z,97004.39
2018-03-27T13:53:10.415Z,97000.09
2018-03-27T13:55:40.374Z,97000.79
2018-03-27T13:58:15.011Z,96995.90
2018-03-27T14:00:48.171Z,96997.61
2018-03-27T14:03:19.487Z,97003.03
2018-03-27T14:05:49.971Z,96990.48
2018-03-27T14:08:23.998Z,96997.75
2018-03-27T14:10:55.757Z,96993.09
2018-03-27T14:13:26.074Z,97000.13
2018-03-27T14:15:58.694Z,97009.20
2018-03-27T14:18:31.250Z,97013.99
2018-03-27T14:21:03.183Z,97021.77
2018-03-27T14:23:34.267Z,97006.75
2018-03-27T14:26:06.235Z,97023.20
2018-03-27T14:28:36.720Z,97032.41
2018-03-27T14:31:06.251Z,97045.22
2018-03-27T14:33:39.025Z,97056.42
2018-03-27T14:36:09.643Z,97061.07
2018-03-27T14:38:42.594Z,97065.64
2018-03-27T14:41:13.974Z,97058.09
2018-03-27T14:43:44.777Z,97055.52
2018-03-27T14:46:15.802Z,97051.56
2018-03-27T14:48:50.365Z,97046.77
2018-03-27T14:51:21.815Z,97045.95
2018-03-27T14:53:53.432Z,97039.22
2018-03-27T14:56:23.938Z,97040.27
2018-03-27T14:58:55.648Z,97034.19
2018-03-27T15:01:28.406Z,97039.70
2018-03-27T15:04:01.515Z,97036.81
2018-03-27T15:06:32.082Z,97037.23
2018-03-27T15:09:03.459Z,97031.27
2018-03-27T15:11:34.435Z,97038.97
2018-03-27T15:14:05.673Z,97042.88
2018-03-27T15:16:36.693Z,97038.75
2018-03-27T15:19:07.026Z,97046.16
2018-03-27T15:21:37.734Z,97049.42
2018-03-27T15:24:12.447Z,97057.41
2018-03-27T15:26:43.514Z,97060.89
2018-03-27T15:29:15.068Z,97073.40
2018-03-27T15:31:46.586Z,97086.72
2018-03-27T15:34:22.433Z,97090.95
2018-03-27T15:40:00.273Z,97109.02
2018-03-27T15:42:31.983Z,97110.15
2018-03-27T15:45:03.736Z,97096.08
2018-03-27T15:47:35.739Z,97106.31
2018-03-27T15:50:06.173Z,97095.46
2018-03-27T15:52:38.466Z,97099.27
2018-03-27T15:55:11.311Z,97118.48
2018-03-27T15:57:42.920Z,97115.50
2018-03-27T16:00:15.776Z,97121.25
2018-03-27T16:02:47.853Z,97120.20
2018-03-27T16:05:23.923Z,97124.58
2018-03-27T16:07:56.125Z,97129.08
2018-03-27T16:10:28.562Z,97135.59
2018-03-27T16:12:58.686Z,97137.44
2018-03-27T16:15:30.688Z,97144.22
2018-03-27T16:18:00.698Z,97141.16
2018-03-27T16:20:33.724Z,97140.53
2018-03-27T16:23:09.706Z,97140.97
2018-03-27T16:26:01.267Z,97140.89
2018-03-27T16:28:30.678Z,97145.23
2018-03-27T16:31:00.099Z,97147.27
2018-03-27T16:33:32.122Z,97150.09
2018-03-27T16:36:08.345Z,97150.80
2018-03-27T16:38:38.817Z,97155.16
2018-03-27T16:41:10.619Z,97156.28
2018-03-27T16:43:46.315Z,97157.42
2018-03-27T16:46:21.536Z,97163.17
2018-03-27T16:48:53.723Z,97162.59
2018-03-27T16:51:24.219Z,97171.04
2018-03-27T16:54:15.870Z,97173.16
2018-03-27T16:56:45.943Z,97168.34
2018-03-27T16:59:16.806Z,97171.87
2018-03-27T17:01:49.462Z,97170.55
2018-03-27T17:04:22.013Z,97173.30
2018-03-27T17:07:03.947Z,97177.58
2018-03-27T17:09:35.563Z,97176.66
2018-03-27T17:12:07.215Z,97172.27
2018-03-27T17:14:39.923Z,97175.70
2018-03-27T17:17:09.868Z,97167.33
2018-03-27T17:19:41.755Z,97169.53
2018-03-27T17:22:12.605Z,97163.90
2018-03-27T17:24:42.883Z,97170.49
2018-03-27T17:27:14.579Z,97177.08
2018-03-27T17:29:44.813Z,97182.28
2018-03-27T17:32:16.503Z,97178.98
2018-03-27T17:34:46.074Z,97187.02
2018-03-27T17:37:15.491Z,97190.95
2018-03-27T17:39:44.994Z,97193.32
2018-03-27T17:42:15.363Z,97193.06
2018-03-27T17:44:49.459Z,97194.76
2018-03-27T17:47:21.947Z,97191.98
2018-03-27T17:49:52.101Z,97192.31
2018-03-27T17:52:25.569Z,97196.81
2018-03-27T17:54:58.787Z,97201.81
2018-03-27T17:57:30.153Z,97200.00
2018-03-27T18:00:00.918Z,97197.19
2018-03-27T18:02:33.557Z,97195.65
2018-03-27T18:05:03.648Z,97203.20
2018-03-27T18:07:34.727Z,97210.58
2018-03-27T18:10:06.647Z,97208.67
2018-03-27T18:12:36.907Z,97211.78
2018-03-27T18:15:06.328Z,97211.66
2018-03-27T18:17:36.420Z,97221.19
2018-03-27T18:20:05.761Z,97215.59
2018-03-27T18:22:42.143Z,97216.55
2018-03-27T18:25:15.509Z,97212.96
2018-03-27T18:27:46.488Z,97210.73
2018-03-27T18:30:18.811Z,97215.23
2018-03-27T18:32:51.093Z,97222.17
2018-03-27T18:35:28.518Z,97217.47
2018-03-27T18:37:59.359Z,97215.48
2018-03-27T18:40:30.801Z,97213.60
2018-03-27T18:45:47.885Z,97225.71
2018-03-27T18:48:21.774Z,97217.38
2018-03-27T18:50:54.023Z,97220.33
2018-03-27T18:53:26.382Z,97224.30
2018-03-27T18:55:57.971Z,97227.55
2018-03-27T18:58:31.361Z,97226.95
2018-03-27T19:01:05.322Z,97226.87
2018-03-27T19:03:35.787Z,97220.72
2018-03-27T19:06:08.848Z,97228.08
2018-03-27T19:08:42.301Z,97228.31
2018-03-27T19:11:12.727Z,97228.85
2018-03-27T19:13:45.667Z,97238.41
2018-03-27T19:16:28.437Z,97239.94
2018-03-27T19:19:03.829Z,97237.62
2018-03-27T19:21:35.274Z,97236.17
2018-03-27T19:24:33.297Z,97241.87
2018-03-27T19:27:07.059Z,97234.42
2018-03-27T19:29:38.494Z,97232.96
2018-03-27T19:32:10.660Z,97237.18
2018-03-27T19:34:41.642Z,97240.34
2018-03-27T19:37:13.158Z,97237.98
2018-03-27T19:39:47.779Z,97239.66
2018-03-27T19:42:20.585Z,97240.88
2018-03-27T19:44:51.545Z,97245.06
2018-03-27T19:47:22.513Z,97238.45
2018-03-27T19:49:53.427Z,97232.81
2018-03-27T19:52:28.618Z,97232.28
2018-03-27T19:55:09.215Z,97225.86
2018-03-27T19:57:41.264Z,97225.26
2018-03-27T20:00:12.815Z,97225.36
2018-03-27T20:02:47.623Z,97227.14
2018-03-27T20:05:19.530Z,97217.70
2018-03-27T20:07:49.717Z,97216.02
2018-03-27T20:10:21.768Z,97225.20
2018-03-27T20:12:52.620Z,97220.39
2018-03-27T20:15:24.666Z,97225.67
2018-03-27T20:18:13.428Z,97222.25
2018-03-27T20:20:45.605Z,97220.77
2018-03-27T20:23:17.180Z,97215.92
2018-03-27T20:25:47.549Z,97214.50
2018-03-27T20:28:19.734Z,97209.07
2018-03-27T20:33:49.249Z,97203.69
2018-03-27T20:36:21.213Z,97202.53
2018-03-27T20:38:54.773Z,97202.30
2018-03-27T20:41:27.004Z,97206.27
2018-03-27T20:44:00.401Z,97206.94
2018-03-27T20:46:32.725Z,97200.11
2018-03-27T20:49:05.611Z,97198.50
2018-03-27T20:51:37.809Z,97202.35
2018-03-27T20:54:08.980Z,97198.12
2018-03-27T20:56:42.344Z,97194.75
2018-03-27T20:59:15.862Z,97191.80
2018-03-27T21:01:46.499Z,97194.66
2018-03-27T21:04:19.026Z,97198.31
2018-03-27T21:06:52.959Z,97196.13
2018-03-27T21:09:25.474Z,97196.30
2018-03-27T21:11:56.603Z,97197.25
2018-03-27T21:14:29.946Z,97201.52
2018-03-27T21:17:00.558Z,97196.56
2018-03-27T21:19:32.872Z,97194.25
2018-03-27T21:22:05.773Z,97202.02
2018-03-27T21:24:37.039Z,97203.02
2018-03-27T21:27:08.536Z,97203.98
2018-03-27T21:29:40.808Z,97202.16
2018-03-27T21:32:14.603Z,97196.94
2018-03-27T21:34:44.986Z,97201.28
2018-03-27T21:37:25.515Z,97202.09
2018-03-27T21:40:00.764Z,97202.75
2018-03-27T21:42:32.188Z,97205.72
2018-03-27T21:45:09.052Z,97207.33
2018-03-27T21:47:39.704Z,97203.97
2018-03-27T21:50:10.943Z,97199.98
2018-03-27T21:52:41.634Z,97199.41
2018-03-27T21:55:12.982Z,97197.72
2018-03-27T21:57:49.975Z,97200.85
2018-03-27T22:00:22.712Z,97204.00
2018-03-27T22:02:56.160Z,97200.56
2018-03-27T22:05:27.204Z,97195.78
2018-03-27T22:08:01.351Z,97190.23
2018-03-27T22:10:33.375Z,97182.28
2018-03-27T22:13:07.849Z,97176.28
2018-03-27T22:15:40.948Z,97180.56
2018-03-27T22:18:13.016Z,97170.69
2018-03-27T22:20:44.506Z,97174.97
2018-03-27T22:23:14.821Z,97168.86
2018-03-27T22:25:45.857Z,97178.23
2018-03-27T22:28:16.606Z,97174.19
2018-03-27T22:30:49.053Z,97167.77
2018-03-27T22:33:20.150Z,97163.63
2018-03-27T22:35:51.097Z,97164.45
2018-03-27T22:38:21.500Z,97168.16
2018-03-27T22:40:52.733Z,97166.67
2018-03-27T22:43:28.497Z,97165.73
2018-03-27T22:46:05.098Z,97172.78
2018-03-27T22:48:36.183Z,97174.05
2018-03-27T22:51:06.864Z,97174.47
2018-03-27T22:53:37.337Z,97163.09
2018-03-27T22:56:09.950Z,97152.92
2018-03-27T22:58:41.650Z,97147.59
2018-03-27T23:01:13.345Z,97147.81
2018-03-27T23:03:49.816Z,97143.18
2018-03-27T23:06:21.879Z,97146.48
2018-03-27T23:08:53.945Z,97141.36
2018-03-27T23:11:24.762Z,97146.06
2018-03-27T23:13:57.276Z,97148.11
2018-03-27T23:16:28.896Z,97142.16
2018-03-27T23:19:01.405Z,97136.17
2018-03-27T23:21:32.049Z,97139.84
2018-03-27T23:24:05.368Z,97135.80
2018-03-27T23:26:40.814Z,97134.17
2018-03-27T23:29:17.651Z,97126.42
2018-03-27T23:32:14.363Z,97122.84
2018-03-27T23:34:46.689Z,97124.63
2018-03-27T23:37:41.581Z,97128.80
2018-03-27T23:40:14.036Z,97120.64
2018-03-27T23:42:48.399Z,97128.14
2018-03-27T23:45:20.115Z,97129.45
2018-03-27T23:47:56.298Z,97121.69
2018-03-27T23:50:27.538Z,97119.05
2018-03-27T23:53:00.668Z,97121.19
2018-03-27T23:55:32.947Z,97119.05
2018-03-27T23:58:04.386Z,97115.41
